createdAt,value
2023-03-07T00:01:29.444Z,30.00
2023-03-07T00:03:57.612Z,30.53
2023-03-07T00:06:25.396Z,31.60
2023-03-07T00:08:53.742Z,32.57
2023-03-07T00:11:23.502Z,33.47
2023-03-07T00:13:56.610Z,36.30
2023-03-07T00:16:24.717Z,38.13
2023-03-07T00:18:51.895Z,35.37
2023-03-07T00:21:22.176Z,37.20
2023-03-07T00:23:49.311Z,38.73
2023-03-07T00:26:19.260Z,40.67
2023-03-07T00:28:48.161Z,40.20
2023-03-07T00:31:15.804Z,41.80
2023-03-07T00:33:42.974Z,43.47
2023-03-07T00:36:22.282Z,44.47
2023-03-07T00:38:52.427Z,45.70
2023-03-07T00:41:24.767Z,45.50
2023-03-07T00:43:53.102Z,46.93
2023-03-07T00:46:21.619Z,50.40
2023-03-07T00:48:48.752Z,49.17
2023-03-07T00:51:17.487Z,50.20
2023-03-07T00:53:44.691Z,51.00
2023-03-07T00:56:17.528Z,51.40
2023-03-07T00:58:45.371Z,53.97
2023-03-07T01:01:14.737Z,52.57
2023-03-07T01:03:42.418Z,52.90
2023-03-07T01:06:14.781Z,53.67
2023-03-07T01:08:42.110Z,56.33
2023-03-07T01:11:10.747Z,56.07
2023-03-07T01:13:38.348Z,56.07
2023-03-07T01:16:17.635Z,54.03
2023-03-07T01:18:46.222Z,55.13
2023-03-07T01:21:19.504Z,57.00
2023-03-07T01:23:46.642Z,56.73
2023-03-07T01:26:20.928Z,56.17
2023-03-07T01:28:48.421Z,55.53
2023-03-07T01:31:15.548Z,54.53
2023-03-07T01:33:42.565Z,54.17
2023-03-07T01:36:20.379Z,50.80
2023-03-07T01:38:49.126Z,52.00
2023-03-07T01:41:16.663Z,51.10
2023-03-07T01:43:44.159Z,53.10
2023-03-07T01:46:17.363Z,51.33
2023-03-07T01:48:50.909Z,50.00
2023-03-07T01:51:19.496Z,47.77
2023-03-07T01:53:48.800Z,49.53
2023-03-07T01:56:15.771Z,48.57
2023-03-07T01:58:46.984Z,46.20
2023-03-07T02:01:15.419Z,48.20
2023-03-07T02:03:49.746Z,46.23
2023-03-07T02:06:17.925Z,45.73
2023-03-07T02:08:47.434Z,45.13
2023-03-07T02:11:17.793Z,44.20
2023-03-07T02:13:44.848Z,44.03
2023-03-07T02:16:12.133Z,45.17
2023-03-07T02:18:50.365Z,44.90
2023-03-07T02:21:38.905Z,44.50
2023-03-07T02:24:19.951Z,41.80
2023-03-07T02:26:49.383Z,40.87
2023-03-07T02:29:16.765Z,42.43
2023-03-07T02:31:47.300Z,40.27
2023-03-07T02:34:30.084Z,35.77
2023-03-07T02:37:06.220Z,37.97
2023-03-07T02:39:33.385Z,38.10
2023-03-07T02:42:09.151Z,38.90
2023-03-07T02:44:36.134Z,39.23
2023-03-07T02:47:03.175Z,35.47
2023-03-07T02:49:30.293Z,36.43
2023-03-07T02:52:00.783Z,36.00
2023-03-07T02:54:27.685Z,38.53
2023-03-07T02:56:55.300Z,36.37
2023-03-07T02:59:22.274Z,35.07
2023-03-07T03:01:49.421Z,33.87
2023-03-07T03:04:16.610Z,33.50
2023-03-07T03:06:43.520Z,33.07
2023-03-07T03:09:10.359Z,31.77
2023-03-07T03:11:37.243Z,29.83
2023-03-07T03:14:04.417Z,28.93
2023-03-07T03:16:31.598Z,29.60
2023-03-07T03:18:58.939Z,28.17
2023-03-07T03:21:26.023Z,27.67
2023-03-07T03:23:52.827Z,27.43
2023-03-07T03:26:19.803Z,28.47
2023-03-07T03:28:46.823Z,27.50
2023-03-07T03:31:18.198Z,25.07
2023-03-07T03:33:45.529Z,23.03
2023-03-07T03:36:17.293Z,23.80
2023-03-07T03:38:44.713Z,23.30
2023-03-07T03:41:13.855Z,22.90
2023-03-07T03:43:40.709Z,21.43
2023-03-07T03:46:07.952Z,21.77
2023-03-07T03:48:34.910Z,21.17
2023-03-07T03:51:06.616Z,20.60
2023-03-07T03:53:35.422Z,19.20
2023-03-07T03:56:08.544Z,19.90
2023-03-07T03:58:36.156Z,19.93
2023-03-07T04:01:07.940Z,19.53
2023-03-07T04:03:36.824Z,17.70
2023-03-07T04:06:09.786Z,17.73
2023-03-07T04:08:38.106Z,17.00
2023-03-07T04:11:06.204Z,15.03
2023-03-07T04:13:37.329Z,14.37
2023-03-07T04:16:05.440Z,13.77
2023-03-07T04:18:32.485Z,14.77
2023-03-07T04:20:59.493Z,13.40
2023-03-07T04:23:26.603Z,13.07
2023-03-07T04:25:56.658Z,11.47
2023-03-07T04:28:41.540Z,10.67
2023-03-07T04:31:08.563Z,11.00
2023-03-07T04:33:37.678Z,10.03
2023-03-07T04:36:07.862Z,10.13
2023-03-07T04:38:35.019Z,8.40
2023-03-07T04:41:02.152Z,8.27
2023-03-07T04:43:29.109Z,7.70
2023-03-07T04:45:56.008Z,6.80
2023-03-07T04:48:23.182Z,7.10
2023-03-07T04:50:50.939Z,6.67
2023-03-07T04:53:19.071Z,5.40
2023-03-07T04:55:46.022Z,5.83
2023-03-07T04:58:13.898Z,4.97
2023-03-07T05:00:42.574Z,5.30
2023-03-07T05:03:11.321Z,4.33
2023-03-07T05:05:38.914Z,4.10
2023-03-07T05:08:06.696Z,3.90
2023-03-07T05:10:35.379Z,4.23
2023-03-07T05:13:02.445Z,3.43
2023-03-07T05:15:31.869Z,3.40
2023-03-07T05:17:58.843Z,3.20
2023-03-07T05:20:25.790Z,2.70
2023-03-07T05:22:52.804Z,2.53
2023-03-07T05:25:19.844Z,2.80
2023-03-07T05:27:46.752Z,2.70
2023-03-07T05:30:14.296Z,2.70
2023-03-07T05:32:41.137Z,2.77
2023-03-07T05:35:10.199Z,2.63
2023-03-07T05:37:37.446Z,2.90
2023-03-07T05:40:09.667Z,2.10
2023-03-07T05:42:36.775Z,2.13
2023-03-07T05:45:06.022Z,2.63
2023-03-07T05:47:33.244Z,2.10
2023-03-07T05:50:00.209Z,2.00
2023-03-07T05:52:27.780Z,2.57
2023-03-07T05:54:55.142Z,1.93
2023-03-07T05:57:22.957Z,2.27
2023-03-07T05:59:50.134Z,2.20
2023-03-07T06:02:18.215Z,2.00
2023-03-07T06:04:47.190Z,1.80
2023-03-07T06:07:16.833Z,1.90
2023-03-07T06:09:43.752Z,2.03
2023-03-07T06:12:11.173Z,1.90
2023-03-07T06:14:38.221Z,4.53
2023-03-07T06:17:05.940Z,4.40
2023-03-07T06:19:33.370Z,7.00
2023-03-07T06:22:00.551Z,4.73
2023-03-07T06:24:27.383Z,6.23
2023-03-07T06:26:54.967Z,2.97
2023-03-07T06:29:21.968Z,5.77
2023-03-07T06:31:48.933Z,3.40
2023-03-07T06:34:15.893Z,2.77
2023-03-07T06:36:42.915Z,3.97
2023-03-07T06:39:09.999Z,2.40
2023-03-07T06:41:38.911Z,2.70
2023-03-07T06:44:06.190Z,3.03
2023-03-07T06:46:33.176Z,2.50
2023-03-07T06:49:00.029Z,2.30
2023-03-07T06:51:30.002Z,1.90
2023-03-07T06:53:56.941Z,1.73
2023-03-07T06:56:23.705Z,1.97
2023-03-07T06:58:53.300Z,2.17
2023-03-07T07:01:23.138Z,2.47
2023-03-07T07:03:50.153Z,1.80
2023-03-07T07:06:17.111Z,2.30
2023-03-07T07:08:44.088Z,2.20
2023-03-07T07:11:11.214Z,1.70
2023-03-07T07:13:38.230Z,1.60
2023-03-07T07:16:06.996Z,1.77
2023-03-07T07:18:36.470Z,1.50
2023-03-07T07:21:05.428Z,1.60
2023-03-07T07:23:32.298Z,1.80
2023-03-07T07:25:59.708Z,1.80
2023-03-07T07:28:26.645Z,2.23
2023-03-07T07:30:53.766Z,1.77
2023-03-07T07:33:21.433Z,1.63
2023-03-07T07:35:48.499Z,1.83
2023-03-07T07:38:15.699Z,1.80
2023-03-07T07:40:45.875Z,1.77
2023-03-07T07:43:15.770Z,1.80
2023-03-07T07:45:43.208Z,2.10
2023-03-07T07:48:10.486Z,2.00
2023-03-07T07:50:37.615Z,1.57
2023-03-07T07:53:05.073Z,2.23
2023-03-07T07:55:32.059Z,1.90
2023-03-07T07:57:59.118Z,1.93
2023-03-07T08:00:27.507Z,1.80
2023-03-07T08:02:54.880Z,1.60
2023-03-07T08:05:26.392Z,2.00
2023-03-07T08:07:53.614Z,1.90
2023-03-07T08:10:20.887Z,2.13
2023-03-07T08:12:51.774Z,2.10
2023-03-07T08:15:24.132Z,2.30
2023-03-07T08:17:51.711Z,1.87
2023-03-07T08:20:22.568Z,1.90
2023-03-07T08:22:50.741Z,2.80
2023-03-07T08:25:21.983Z,2.23
2023-03-07T08:27:55.132Z,2.30
2023-03-07T08:30:29.618Z,2.33
2023-03-07T08:32:57.530Z,2.47
2023-03-07T08:35:26.373Z,2.57
2023-03-07T08:37:59.363Z,2.20
2023-03-07T08:40:30.475Z,2.73
2023-03-07T08:42:59.694Z,2.53
2023-03-07T08:45:29.461Z,3.00
2023-03-07T08:47:57.574Z,2.30
2023-03-07T08:50:34.388Z,2.30
2023-03-07T08:53:01.516Z,2.17
2023-03-07T08:55:28.612Z,2.20
2023-03-07T08:57:55.581Z,2.53
2023-03-07T09:00:25.506Z,2.50
2023-03-07T09:02:54.586Z,1.87
2023-03-07T09:05:21.748Z,2.50
2023-03-07T09:07:48.743Z,2.50
2023-03-07T09:10:17.763Z,2.30
2023-03-07T09:12:44.679Z,2.47
2023-03-07T09:15:11.884Z,2.60
2023-03-07T09:17:41.622Z,2.40
2023-03-07T09:20:09.909Z,2.63
2023-03-07T09:22:36.834Z,2.23
2023-03-07T09:25:04.278Z,2.47
2023-03-07T09:27:31.522Z,2.40
2023-03-07T09:30:01.393Z,2.17
2023-03-07T09:32:28.340Z,1.70
2023-03-07T09:34:55.199Z,2.00
2023-03-07T09:37:22.570Z,1.93
2023-03-07T09:39:50.858Z,1.90
2023-03-07T09:42:40.676Z,1.83
2023-03-07T09:45:39.566Z,1.63
2023-03-07T09:48:28.051Z,2.07
2023-03-07T09:51:11.546Z,1.70
2023-03-07T09:53:55.476Z,1.63
2023-03-07T09:56:28.045Z,1.83
2023-03-07T09:59:13.716Z,1.87
2023-03-07T10:01:50.812Z,1.80
2023-03-07T10:04:36.518Z,1.70
2023-03-07T10:07:05.515Z,1.53
2023-03-07T10:09:32.662Z,1.70
2023-03-07T10:12:47.286Z,1.30
2023-03-07T10:15:36.418Z,1.80
2023-03-07T10:18:25.586Z,1.30
2023-03-07T10:21:12.414Z,1.37
2023-03-07T10:24:11.997Z,1.80
2023-03-07T10:26:57.876Z,1.60
2023-03-07T10:29:30.147Z,1.67
2023-03-07T10:32:23.442Z,1.60
2023-03-07T10:34:59.865Z,1.87
2023-03-07T10:37:40.867Z,1.90
2023-03-07T10:40:18.422Z,2.20
2023-03-07T10:42:45.752Z,2.27
2023-03-07T10:45:14.937Z,1.90
2023-03-07T10:47:42.307Z,1.80
2023-03-07T10:50:43.099Z,2.77
2023-03-07T10:53:25.246Z,2.13
2023-03-07T10:55:52.775Z,2.37
2023-03-07T10:58:28.027Z,2.17
2023-03-07T11:01:16.255Z,10.77
2023-03-07T11:03:54.403Z,2.10
2023-03-07T11:06:39.920Z,1.87
2023-03-07T11:09:34.236Z,2.57
2023-03-07T11:12:00.970Z,1.70
2023-03-07T11:14:29.718Z,1.97
2023-03-07T11:17:03.894Z,1.63
2023-03-07T11:19:41.324Z,1.60
2023-03-07T11:22:22.456Z,1.73
2023-03-07T11:25:04.167Z,2.10
2023-03-07T11:27:36.542Z,1.77
2023-03-07T11:30:19.986Z,2.20
2023-03-07T11:33:06.105Z,2.17
2023-03-07T11:35:51.434Z,2.03
2023-03-07T11:38:24.069Z,2.00
2023-03-07T11:41:11.811Z,2.10
2023-03-07T11:43:43.058Z,1.83
2023-03-07T11:46:47.389Z,2.00
2023-03-07T11:49:32.688Z,2.40
2023-03-07T11:52:26.865Z,2.53
2023-03-07T11:55:05.952Z,1.53
2023-03-07T11:57:38.590Z,1.97
2023-03-07T12:00:36.883Z,1.53
2023-03-07T12:03:41.860Z,2.40
2023-03-07T12:06:23.409Z,4.00
2023-03-07T12:09:01.459Z,4.13
2023-03-07T12:11:47.188Z,5.37
2023-03-07T12:14:35.426Z,3.10
2023-03-07T12:17:33.363Z,2.40
2023-03-07T12:20:11.926Z,2.57
2023-03-07T12:23:09.737Z,1.90
2023-03-07T12:25:43.600Z,3.00
2023-03-07T12:28:31.781Z,2.97
2023-03-07T12:31:15.487Z,1.67
2023-03-07T12:33:59.853Z,1.40
2023-03-07T12:36:44.038Z,1.60
2023-03-07T12:39:31.205Z,1.30
2023-03-07T12:42:22.595Z,1.40
2023-03-07T12:45:16.775Z,1.67
2023-03-07T12:47:58.861Z,1.70
2023-03-07T12:50:50.030Z,1.20
2023-03-07T12:53:38.158Z,1.50
2023-03-07T12:56:25.338Z,1.60
2023-03-07T12:59:14.582Z,1.60
2023-03-07T13:01:49.472Z,1.40
2023-03-07T13:04:23.212Z,1.50
2023-03-07T13:06:51.120Z,1.50
2023-03-07T13:09:23.050Z,1.37
2023-03-07T13:12:17.258Z,1.13
2023-03-07T13:14:55.308Z,1.40
2023-03-07T13:17:31.287Z,1.37
2023-03-07T13:20:00.456Z,1.60
2023-03-07T13:22:27.539Z,1.27
2023-03-07T13:24:57.300Z,1.50
2023-03-07T13:27:42.271Z,1.33
2023-03-07T13:30:12.282Z,1.60
2023-03-07T13:32:51.414Z,1.60
2023-03-07T13:35:38.154Z,1.23
2023-03-07T13:38:11.337Z,1.77
2023-03-07T13:40:47.725Z,1.10
2023-03-07T13:43:20.676Z,1.50
2023-03-07T13:45:50.773Z,1.47
2023-03-07T13:48:20.454Z,1.70
2023-03-07T13:50:50.064Z,1.50
2023-03-07T13:53:39.901Z,1.30
2023-03-07T13:56:15.931Z,1.20
2023-03-07T13:59:10.046Z,1.23
2023-03-07T14:01:40.929Z,1.57
2023-03-07T14:04:39.810Z,1.23
2023-03-07T14:07:12.296Z,1.20
2023-03-07T14:10:09.903Z,1.50
2023-03-07T14:13:05.324Z,0.90
2023-03-07T14:16:00.225Z,1.10
2023-03-07T14:18:57.898Z,1.77
2023-03-07T14:21:43.509Z,2.00
2023-03-07T14:24:31.970Z,1.33
2023-03-07T14:27:03.753Z,1.23
2023-03-07T14:29:31.348Z,1.00
2023-03-07T14:32:01.197Z,1.50
2023-03-07T14:34:36.348Z,1.40
2023-03-07T14:37:17.253Z,1.13
2023-03-07T14:39:59.763Z,1.20
2023-03-07T14:42:45.037Z,1.30
2023-03-07T14:45:28.886Z,1.43
2023-03-07T14:48:04.764Z,1.47
2023-03-07T14:50:32.928Z,1.20
2023-03-07T14:53:05.653Z,1.20
2023-03-07T14:55:39.265Z,1.10
2023-03-07T14:58:07.456Z,1.23
2023-03-07T15:00:35.897Z,2.10
2023-03-07T15:03:08.394Z,1.00
2023-03-07T15:06:00.283Z,1.00
2023-03-07T15:08:32.873Z,1.67
2023-03-07T15:11:14.741Z,1.33
2023-03-07T15:13:46.614Z,1.17
2023-03-07T15:16:19.858Z,0.97
2023-03-07T15:18:51.830Z,0.70
2023-03-07T15:21:23.423Z,0.90
2023-03-07T15:24:02.935Z,1.30
2023-03-07T15:26:31.627Z,1.23
2023-03-07T15:29:01.919Z,0.80
2023-03-07T15:31:32.039Z,0.60
2023-03-07T15:34:21.090Z,0.83
2023-03-07T15:36:47.920Z,1.13
2023-03-07T15:39:37.933Z,1.30
2023-03-07T15:42:07.591Z,1.10
2023-03-07T15:44:36.658Z,1.20
2023-03-07T15:47:18.073Z,1.00
2023-03-07T15:49:50.601Z,1.60
2023-03-07T15:52:27.989Z,1.20
2023-03-07T15:54:56.896Z,0.90
2023-03-07T15:57:31.961Z,1.30
2023-03-07T16:00:03.026Z,1.20
2023-03-07T16:02:32.846Z,0.90
2023-03-07T16:05:02.268Z,1.17
2023-03-07T16:07:29.176Z,1.40
2023-03-07T16:09:56.167Z,1.00
2023-03-07T16:12:26.931Z,1.10
2023-03-07T16:14:55.521Z,0.93
2023-03-07T16:17:35.992Z,1.00
2023-03-07T16:20:04.593Z,1.13
2023-03-07T16:22:31.659Z,1.37
2023-03-07T16:24:58.830Z,1.40
2023-03-07T16:27:25.998Z,1.30
2023-03-07T16:29:54.014Z,1.20
2023-03-07T16:32:22.791Z,1.20
2023-03-07T16:34:52.079Z,1.70
2023-03-07T16:37:20.728Z,1.10
2023-03-07T16:39:47.495Z,1.10
2023-03-07T16:42:21.576Z,1.30
2023-03-07T16:44:49.771Z,1.20
2023-03-07T16:47:18.209Z,1.67
2023-03-07T16:49:46.982Z,2.00
2023-03-07T16:52:14.762Z,1.50
2023-03-07T16:54:41.714Z,1.23
2023-03-07T16:57:17.350Z,1.13
2023-03-07T16:59:47.241Z,0.73
2023-03-07T17:02:19.537Z,0.90
2023-03-07T17:04:47.933Z,0.97
2023-03-07T17:07:19.808Z,0.57
2023-03-07T17:09:46.648Z,0.80
2023-03-07T17:12:14.347Z,0.80
2023-03-07T17:14:42.564Z,0.70
2023-03-07T17:17:18.658Z,0.83
2023-03-07T17:19:45.439Z,0.70
2023-03-07T17:22:12.310Z,0.53
2023-03-07T17:24:42.078Z,1.23
2023-03-07T17:27:09.356Z,1.57
2023-03-07T17:29:50.244Z,1.53
2023-03-07T17:32:18.333Z,1.70
2023-03-07T17:34:45.209Z,1.70
2023-03-07T17:37:12.813Z,1.70
2023-03-07T17:39:40.131Z,1.40
2023-03-07T17:42:07.502Z,1.70
2023-03-07T17:44:34.443Z,1.87
2023-03-07T17:47:01.523Z,1.70
2023-03-07T17:49:34.606Z,1.70
2023-03-07T17:52:01.466Z,2.10
2023-03-07T17:54:28.469Z,3.00
2023-03-07T17:56:59.883Z,3.33
2023-03-07T17:59:27.248Z,2.60
2023-03-07T18:01:54.256Z,1.30
2023-03-07T18:04:21.271Z,1.50
2023-03-07T18:06:48.690Z,3.10
2023-03-07T18:09:16.988Z,2.43
2023-03-07T18:11:43.947Z,1.83
2023-03-07T18:14:12.915Z,2.73
2023-03-07T18:16:39.890Z,3.40
2023-03-07T18:19:10.107Z,4.63
2023-03-07T18:21:41.566Z,4.17
2023-03-07T18:24:26.391Z,3.30
2023-03-07T18:26:57.602Z,2.47
2023-03-07T18:29:25.459Z,2.67
2023-03-07T18:31:53.201Z,3.70
2023-03-07T18:34:21.017Z,3.80
2023-03-07T18:36:51.814Z,3.10
2023-03-07T18:39:23.330Z,2.50
2023-03-07T18:41:50.401Z,3.00
2023-03-07T18:44:18.777Z,3.23
2023-03-07T18:46:46.512Z,4.40
2023-03-07T18:49:14.795Z,4.13
2023-03-07T18:51:45.878Z,4.17
2023-03-07T18:54:13.053Z,4.00
2023-03-07T18:56:40.573Z,4.40
2023-03-07T18:59:10.630Z,4.57
2023-03-07T19:01:38.090Z,6.37
2023-03-07T19:04:05.861Z,5.10
2023-03-07T19:06:36.615Z,6.30
2023-03-07T19:09:05.001Z,6.20
2023-03-07T19:11:32.202Z,6.27
2023-03-07T19:13:59.969Z,5.90
2023-03-07T19:16:28.422Z,6.40
2023-03-07T19:18:56.119Z,6.53
2023-03-07T19:21:25.195Z,7.20
2023-03-07T19:23:54.248Z,8.23
2023-03-07T19:26:24.469Z,6.70
2023-03-07T19:28:53.694Z,7.07
2023-03-07T19:31:31.474Z,5.80
2023-03-07T19:33:59.141Z,6.17
2023-03-07T19:36:32.236Z,6.10
2023-03-07T19:39:02.416Z,7.00
2023-03-07T19:41:34.106Z,6.50
2023-03-07T19:44:01.472Z,7.23
2023-03-07T19:46:29.025Z,7.63
2023-03-07T19:48:56.104Z,7.13
2023-03-07T19:51:25.760Z,5.90
2023-03-07T19:53:57.722Z,5.40
2023-03-07T19:56:29.969Z,4.13
2023-03-07T19:58:58.883Z,4.00
2023-03-07T20:01:27.413Z,4.50
2023-03-07T20:03:54.728Z,3.67
2023-03-07T20:06:26.709Z,4.50
2023-03-07T20:08:55.207Z,4.73
2023-03-07T20:11:28.506Z,5.37
2023-03-07T20:13:59.984Z,6.90
2023-03-07T20:16:29.789Z,7.73
2023-03-07T20:18:59.722Z,9.73
2023-03-07T20:21:28.774Z,9.17
2023-03-07T20:23:59.750Z,8.27
2023-03-07T20:26:35.316Z,7.03
2023-03-07T20:29:08.095Z,6.00
2023-03-07T20:31:36.544Z,3.90
2023-03-07T20:34:04.058Z,3.97
2023-03-07T20:36:33.522Z,3.70
2023-03-07T20:39:02.775Z,3.90
2023-03-07T20:41:34.711Z,5.37
2023-03-07T20:44:04.324Z,5.80
2023-03-07T20:46:31.956Z,6.23
2023-03-07T20:49:00.435Z,5.00
2023-03-07T20:51:29.913Z,5.00
2023-03-07T20:53:59.362Z,4.90
2023-03-07T20:56:28.723Z,3.90
2023-03-07T20:59:00.236Z,4.40
2023-03-07T21:01:29.528Z,4.30
2023-03-07T21:03:56.849Z,4.40
2023-03-07T21:06:24.052Z,3.70
2023-03-07T21:08:51.026Z,3.40
2023-03-07T21:11:19.899Z,3.23
2023-03-07T21:13:48.826Z,3.83
2023-03-07T21:16:18.806Z,3.50
2023-03-07T21:18:46.258Z,3.30
2023-03-07T21:21:15.476Z,2.80
2023-03-07T21:23:42.683Z,2.60
2023-03-07T21:26:19.980Z,2.60
2023-03-07T21:28:48.430Z,2.47
2023-03-07T21:31:25.309Z,2.83
2023-03-07T21:33:59.578Z,2.73
2023-03-07T21:36:28.039Z,3.73
2023-03-07T21:38:56.218Z,4.10
2023-03-07T21:41:25.292Z,3.50
2023-03-07T21:43:55.812Z,3.20
2023-03-07T21:46:23.567Z,2.80
2023-03-07T21:48:50.956Z,2.70
2023-03-07T21:51:18.662Z,2.37
2023-03-07T21:53:46.855Z,3.23
2023-03-07T21:56:19.270Z,2.30
2023-03-07T21:58:51.009Z,2.73
2023-03-07T22:01:27.058Z,2.87
2023-03-07T22:03:55.558Z,3.10
2023-03-07T22:06:23.716Z,2.53
2023-03-07T22:08:51.171Z,2.43
2023-03-07T22:11:18.032Z,2.10
2023-03-07T22:13:44.958Z,2.17
2023-03-07T22:16:14.561Z,2.40
2023-03-07T22:18:41.575Z,2.70
2023-03-07T22:21:14.478Z,2.47
2023-03-07T22:23:46.055Z,2.10
2023-03-07T22:26:13.117Z,2.50
2023-03-07T22:28:43.630Z,1.80
2023-03-07T22:31:13.699Z,2.07
2023-03-07T22:33:41.635Z,1.77
2023-03-07T22:36:12.678Z,2.03
2023-03-07T22:38:41.908Z,1.80
2023-03-07T22:41:13.292Z,1.80
2023-03-07T22:43:40.461Z,2.20
2023-03-07T22:46:08.011Z,1.73
2023-03-07T22:48:35.680Z,1.77
2023-03-07T22:51:02.868Z,1.90
2023-03-07T22:53:31.356Z,1.97
2023-03-07T22:56:02.195Z,2.30
2023-03-07T22:58:32.463Z,2.27
2023-03-07T23:00:59.596Z,2.00
2023-03-07T23:03:26.966Z,1.50
2023-03-07T23:06:00.124Z,1.60
2023-03-07T23:08:27.285Z,1.60
2023-03-07T23:11:10.016Z,1.90
2023-03-07T23:13:36.963Z,1.90
2023-03-07T23:16:10.685Z,2.23
2023-03-07T23:18:40.765Z,2.43
2023-03-07T23:21:10.106Z,1.90
2023-03-07T23:23:37.678Z,1.80
2023-03-07T23:26:05.755Z,1.90
2023-03-07T23:28:33.265Z,2.20
2023-03-07T23:31:00.250Z,1.90
2023-03-07T23:33:28.100Z,2.13
2023-03-07T23:36:00.051Z,2.00
2023-03-07T23:38:29.955Z,2.87
2023-03-07T23:40:58.550Z,2.30
2023-03-07T23:43:25.477Z,2.50
2023-03-07T23:45:52.393Z,2.23
2023-03-07T23:48:19.313Z,2.20
2023-03-07T23:50:48.662Z,2.50
2023-03-07T23:53:15.560Z,2.67
2023-03-07T23:55:42.797Z,2.87
2023-03-07T23:58:09.865Z,2.73
